Time;durP1;ratioP1;P1;durP2;ratioP2;P2;SDS_P1;SDS_P2;PMS_P1;PMS_P2;Temp;Humidity;BMP_temperature;BMP_pressure;BME280_temperature;BME280_humidity;BME280_pressure;Samples;Min_cycle;Max_cycle;Signal;HPM_P1;HPM_P2
2022/01/23 00:00:35;;;;;;;4.17;1.60;;;;;;;;;;5074229;28;20475;-37
2022/01/23 00:03:02;;;;;;;6.22;3.22;;;;;;;;;;5074221;28;20062;-37
2022/01/23 00:05:34;;;;;;;3.42;1.58;;;;;;;;;;5074206;28;20036;-37
2022/01/23 00:07:59;;;;;;;3.53;3.22;;;;;;;;;;5074482;28;20078;-38
2022/01/23 00:10:25;;;;;;;5.78;3.28;;;;;;;;;;5073867;28;20385;-37
2022/01/23 00:12:55;;;;;;;3.92;2.03;;;;;;;;;;5074413;28;20029;-37
2022/01/23 00:18:05;;;;;;;3.95;2.58;;;;;;;;;;5074097;28;20024;-37
2022/01/23 00:20:30;;;;;;;2.38;1.92;;;;;;;;;;5073688;28;20031;-37
2022/01/23 00:22:59;;;;;;;5.22;2.35;;;;;;;;;;5074179;28;20119;-37
2022/01/23 00:30:55;;;;;;;9.88;3.30;;;;;;;;;;5089343;28;20025;-37
2022/01/23 00:33:21;;;;;;;5.50;3.00;;;;;;;;;;5073747;28;20028;-37
2022/01/23 00:35:46;;;;;;;11.27;2.70;;;;;;;;;;5089303;28;20035;-37
2022/01/23 00:38:13;;;;;;;5.75;3.35;;;;;;;;;;5073470;28;20035;-38
2022/01/23 00:40:39;;;;;;;4.65;2.13;;;;;;;;;;5073762;28;20035;-37
2022/01/23 00:43:26;;;;;;;9.38;3.25;;;;;;;;;;5073423;28;20123;-37
2022/01/23 00:45:57;;;;;;;2.53;1.88;;;;;;;;;;5073438;28;20039;-37
2022/01/23 00:48:28;;;;;;;4.28;2.10;;;;;;;;;;5073686;28;20429;-37
2022/01/23 00:50:54;;;;;;;4.13;2.40;;;;;;;;;;5072527;28;20027;-37
2022/01/23 00:53:19;;;;;;;5.57;3.00;;;;;;;;;;5073332;28;20016;-37
2022/01/23 00:55:45;;;;;;;5.85;2.60;;;;;;;;;;5072119;28;20040;-38
2022/01/23 00:58:11;;;;;;;7.25;2.58;;;;;;;;;;5073212;28;20091;-37
2022/01/23 01:00:37;;;;;;;5.80;2.45;;;;;;;;;;5073199;28;20112;-37
2022/01/23 01:03:03;;;;;;;3.00;2.63;;;;;;;;;;5073490;28;20108;-37
2022/01/23 01:05:29;;;;;;;2.35;2.13;;;;;;;;;;5071761;28;20448;-37
2022/01/23 01:07:55;;;;;;;2.53;2.30;;;;;;;;;;5073189;28;20025;-37
2022/01/23 01:10:26;;;;;;;6.90;2.55;;;;;;;;;;5073096;28;20055;-37
2022/01/23 01:12:58;;;;;;;4.57;2.85;;;;;;;;;;5073076;28;20036;-37
2022/01/23 01:15:33;;;;;;;5.67;2.40;;;;;;;;;;5071534;28;20139;-37
2022/01/23 01:31:43;;;;;;;2.80;1.90;;;;;;;;;;5088124;28;20032;-38
2022/01/23 01:34:14;;;;;;;2.85;1.67;;;;;;;;;;5071235;28;20024;-37
2022/01/23 01:36:51;;;;;;;2.20;1.73;;;;;;;;;;5088039;28;20028;-37
2022/01/23 01:39:21;;;;;;;2.38;1.77;;;;;;;;;;5071028;28;20490;-37
2022/01/23 01:41:47;;;;;;;4.72;2.60;;;;;;;;;;5070668;28;20060;-37
2022/01/23 01:44:15;;;;;;;2.50;2.30;;;;;;;;;;5087869;28;20115;-38
2022/01/23 01:47:07;;;;;;;5.57;4.00;;;;;;;;;;5041200;28;20045;-37
2022/01/23 01:49:39;;;;;;;4.57;1.95;;;;;;;;;;5087959;28;20044;-37
2022/01/23 01:52:06;;;;;;;4.32;2.85;;;;;;;;;;5070828;28;20036;-38
2022/01/23 01:54:33;;;;;;;4.78;2.60;;;;;;;;;;5070731;28;20025;-38
2022/01/23 01:57:08;;;;;;;2.60;2.40;;;;;;;;;;5087596;28;20028;-38
2022/01/23 02:10:52;;;;;;;4.57;2.13;;;;;;;;;;5087743;28;20043;-38
2022/01/23 02:13:32;;;;;;;4.22;2.60;;;;;;;;;;5070403;28;20513;-37
2022/01/23 02:16:29;;;;;;;4.28;2.53;;;;;;;;;;5087477;28;20043;-37
2022/01/23 02:25:01;;;;;;;4.50;2.75;;;;;;;;;;5051742;28;20115;-37
2022/01/23 02:55:14;;;;;;;3.58;2.42;;;;;;;;;;5071351;28;20062;-37
2022/01/23 03:00:19;;;;;;;4.43;2.65;;;;;;;;;;5086831;28;20021;-37
2022/01/23 03:03:04;;;;;;;5.78;3.20;;;;;;;;;;5071625;28;20105;-38
2022/01/23 03:06:52;;;;;;;5.57;2.58;;;;;;;;;;5047443;28;20040;-39
2022/01/23 03:12:13;;;;;;;3.30;2.08;;;;;;;;;;5071022;28;20485;-37
2022/01/23 03:30:26;;;;;;;5.63;2.15;;;;;;;;;;5090529;28;20043;-37
2022/01/23 03:32:53;;;;;;;2.85;2.17;;;;;;;;;;5090516;28;20090;-38
2022/01/23 03:35:19;;;;;;;4.70;2.72;;;;;;;;;;5075021;28;20025;-37
2022/01/23 03:37:46;;;;;;;4.82;2.42;;;;;;;;;;5074678;28;20032;-37
2022/01/23 03:40:12;;;;;;;4.60;2.30;;;;;;;;;;5073301;28;20040;-37
2022/01/23 03:42:40;;;;;;;6.63;2.50;;;;;;;;;;5074448;28;20056;-38
2022/01/23 03:50:31;;;;;;;2.53;1.98;;;;;;;;;;5090071;28;20028;-38
2022/01/23 03:52:59;;;;;;;3.45;2.65;;;;;;;;;;5073166;28;20012;-37
2022/01/23 03:55:26;;;;;;;4.28;2.25;;;;;;;;;;5089926;28;20044;-38
2022/01/23 03:57:51;;;;;;;3.95;2.38;;;;;;;;;;5073057;28;20047;-37
2022/01/23 04:00:17;;;;;;;4.25;2.72;;;;;;;;;;5072906;28;20125;-37
2022/01/23 04:02:43;;;;;;;4.30;2.40;;;;;;;;;;5074658;28;20077;-37
2022/01/23 04:05:18;;;;;;;5.32;2.60;;;;;;;;;;5089740;28;20032;-37
2022/01/23 04:07:44;;;;;;;6.63;2.58;;;;;;;;;;5074232;28;20031;-37
2022/01/23 04:10:12;;;;;;;3.63;2.58;;;;;;;;;;5072733;28;20021;-38
2022/01/23 04:12:49;;;;;;;4.80;2.70;;;;;;;;;;5089720;28;20041;-37
2022/01/23 04:34:11;;;;;;;7.55;3.28;;;;;;;;;;5089385;28;20039;-37
2022/01/23 04:45:19;;;;;;;5.85;2.47;;;;;;;;;;5073645;28;20039;-37
2022/01/23 04:48:49;;;;;;;6.68;3.78;;;;;;;;;;5089099;28;20032;-37
2022/01/23 05:04:51;;;;;;;2.92;2.13;;;;;;;;;;5035873;28;20045;-38
2022/01/23 05:07:32;;;;;;;3.05;2.53;;;;;;;;;;5073344;28;20040;-37
2022/01/23 05:10:18;;;;;;;3.53;2.38;;;;;;;;;;5041188;28;20040;-37
2022/01/23 05:13:10;;;;;;;4.32;2.22;;;;;;;;;;5070889;28;20174;-38
2022/01/23 05:15:35;;;;;;;4.22;2.75;;;;;;;;;;5071477;28;20131;-37
2022/01/23 05:18:01;;;;;;;3.08;2.30;;;;;;;;;;5072931;28;20031;-38
2022/01/23 05:20:28;;;;;;;4.25;2.45;;;;;;;;;;5072735;28;20464;-37
2022/01/23 05:22:59;;;;;;;4.45;2.75;;;;;;;;;;5071308;28;20033;-38
2022/01/23 05:25:28;;;;;;;5.90;3.30;;;;;;;;;;5071322;28;20063;-38
2022/01/23 05:27:54;;;;;;;5.82;2.60;;;;;;;;;;5072752;28;20466;-37
2022/01/23 05:30:20;;;;;;;4.47;2.00;;;;;;;;;;5071299;28;20033;-37
2022/01/23 05:32:46;;;;;;;5.78;2.80;;;;;;;;;;5072627;28;20051;-37
2022/01/23 05:35:13;;;;;;;6.20;2.35;;;;;;;;;;5072576;28;20077;-37
2022/01/23 05:37:40;;;;;;;2.80;1.98;;;;;;;;;;5070847;28;20017;-37
2022/01/23 05:40:09;;;;;;;4.78;2.10;;;;;;;;;;5088014;28;20028;-37
2022/01/23 05:42:36;;;;;;;8.32;3.40;;;;;;;;;;5070778;28;20048;-38
2022/01/23 05:45:02;;;;;;;4.00;2.60;;;;;;;;;;5070897;28;20513;-37
2022/01/23 05:47:39;;;;;;;3.15;2.60;;;;;;;;;;5071065;28;20111;-38
2022/01/23 05:50:16;;;;;;;3.97;2.50;;;;;;;;;;5072173;28;20025;-37
2022/01/23 05:53:13;;;;;;;3.80;2.53;;;;;;;;;;5071985;28;20036;-42
2022/01/23 05:55:59;;;;;;;5.68;2.92;;;;;;;;;;5070900;28;20032;-37
2022/01/23 05:58:51;;;;;;;3.33;2.80;;;;;;;;;;5068066;28;20028;-37
2022/01/23 06:01:18;;;;;;;5.65;3.55;;;;;;;;;;5087447;28;20040;-37
2022/01/23 06:03:46;;;;;;;3.58;3.00;;;;;;;;;;5070829;28;20076;-38
2022/01/23 06:06:14;;;;;;;2.40;1.92;;;;;;;;;;5070463;28;20039;-37
2022/01/23 06:08:40;;;;;;;4.88;2.58;;;;;;;;;;5070532;28;20024;-37
2022/01/23 06:11:05;;;;;;;2.83;2.20;;;;;;;;;;5071994;28;20422;-37
2022/01/23 06:13:39;;;;;;;8.27;2.60;;;;;;;;;;5070494;28;20021;-37
2022/01/23 06:16:07;;;;;;;2.70;1.67;;;;;;;;;;5087469;28;20074;-38
2022/01/23 06:18:35;;;;;;;2.40;1.90;;;;;;;;;;5070256;28;20021;-37
2022/01/23 06:21:21;;;;;;;4.15;2.08;;;;;;;;;;5071860;28;20048;-37
2022/01/23 06:24:08;;;;;;;2.75;2.50;;;;;;;;;;5071803;28;20043;-37
2022/01/23 06:26:48;;;;;;;3.78;2.03;;;;;;;;;;5087214;28;20662;-37
2022/01/23 06:29:15;;;;;;;4.43;2.88;;;;;;;;;;5071741;28;20075;-37
2022/01/23 06:31:41;;;;;;;4.40;2.78;;;;;;;;;;5070300;28;20150;-37
2022/01/23 06:34:07;;;;;;;8.40;3.35;;;;;;;;;;5071557;28;20111;-37
2022/01/23 06:36:33;;;;;;;12.60;3.00;;;;;;;;;;5071442;28;20024;-37
2022/01/23 06:38:59;;;;;;;5.28;2.78;;;;;;;;;;5070174;28;20033;-37
2022/01/23 06:41:25;;;;;;;5.40;2.78;;;;;;;;;;5071203;28;20693;-37
2022/01/23 06:44:10;;;;;;;6.03;3.35;;;;;;;;;;5071544;28;20039;-37
2022/01/23 06:46:41;;;;;;;4.10;2.75;;;;;;;;;;5070127;28;20043;-37
2022/01/23 06:49:08;;;;;;;5.25;2.33;;;;;;;;;;5086135;28;20036;-37
2022/01/23 06:51:35;;;;;;;5.93;2.83;;;;;;;;;;5070012;28;20024;-37
2022/01/23 06:54:02;;;;;;;3.47;2.60;;;;;;;;;;5069865;28;20024;-38
2022/01/23 06:56:27;;;;;;;5.00;2.88;;;;;;;;;;5069917;28;20028;-37
2022/01/23 06:58:54;;;;;;;2.08;1.63;;;;;;;;;;5086798;28;20481;-37
2022/01/23 07:01:20;;;;;;;4.80;2.72;;;;;;;;;;5069660;28;20082;-37
2022/01/23 07:04:04;;;;;;;4.53;3.15;;;;;;;;;;5071510;28;20113;-37
2022/01/23 07:06:46;;;;;;;5.75;3.05;;;;;;;;;;5069970;28;20024;-37
2022/01/23 07:09:30;;;;;;;5.90;3.33;;;;;;;;;;5069644;28;20533;-37
2022/01/23 07:12:14;;;;;;;5.60;3.22;;;;;;;;;;5071058;28;20051;-37
2022/01/23 07:14:55;;;;;;;5.22;3.30;;;;;;;;;;5071530;28;20493;-37
2022/01/23 07:17:47;;;;;;;3.03;2.40;;;;;;;;;;5068908;28;20108;-37
2022/01/23 07:20:23;;;;;;;4.78;3.30;;;;;;;;;;5069653;28;20032;-37
2022/01/23 07:22:51;;;;;;;4.32;3.00;;;;;;;;;;5086525;28;20044;-37
2022/01/23 07:25:16;;;;;;;6.57;3.08;;;;;;;;;;5069601;28;20016;-37
2022/01/23 07:27:48;;;;;;;3.55;2.67;;;;;;;;;;5069471;28;20043;-37
2022/01/23 07:30:27;;;;;;;3.70;2.35;;;;;;;;;;5086412;28;20032;-37
2022/01/23 07:32:53;;;;;;;4.57;3.00;;;;;;;;;;5071190;28;20041;-37
2022/01/23 07:35:19;;;;;;;4.75;2.60;;;;;;;;;;5069527;28;20021;-37
2022/01/23 07:37:45;;;;;;;5.65;2.72;;;;;;;;;;5086262;28;20028;-37
2022/01/23 07:40:27;;;;;;;5.00;2.85;;;;;;;;;;5070870;28;20052;-37
2022/01/23 07:42:55;;;;;;;3.65;3.08;;;;;;;;;;5069143;28;20048;-37
2022/01/23 07:45:39;;;;;;;3.03;2.72;;;;;;;;;;5070903;28;20502;-37
2022/01/23 07:48:27;;;;;;;4.28;2.25;;;;;;;;;;5071912;28;20040;-37
2022/01/23 07:51:00;;;;;;;4.10;2.80;;;;;;;;;;5069309;28;20075;-37
2022/01/23 07:53:48;;;;;;;8.13;3.50;;;;;;;;;;5071089;28;20540;-37
2022/01/23 07:56:28;;;;;;;4.45;2.70;;;;;;;;;;5069257;28;20028;-37
2022/01/23 07:59:09;;;;;;;5.32;3.28;;;;;;;;;;5086110;28;20036;-37
2022/01/23 08:01:55;;;;;;;2.50;2.30;;;;;;;;;;5089909;28;20037;-37
2022/01/23 08:04:40;;;;;;;3.60;2.03;;;;;;;;;;5074465;28;20135;-37
2022/01/23 08:07:11;;;;;;;18.75;6.85;;;;;;;;;;5074012;28;20032;-37
2022/01/23 08:09:58;;;;;;;3.13;2.53;;;;;;;;;;5074010;28;20033;-37
2022/01/23 08:12:24;;;;;;;2.80;2.50;;;;;;;;;;5074125;28;20024;-37
2022/01/23 08:14:50;;;;;;;5.03;3.03;;;;;;;;;;5074019;28;20024;-37
2022/01/23 08:17:16;;;;;;;5.70;3.72;;;;;;;;;;5073923;28;20560;-37
2022/01/23 08:19:41;;;;;;;6.85;2.65;;;;;;;;;;5074065;28;20054;-37
2022/01/23 08:22:07;;;;;;;4.90;2.75;;;;;;;;;;5073870;28;20048;-37
2022/01/23 08:24:32;;;;;;;2.47;2.25;;;;;;;;;;5073747;28;20093;-37
2022/01/23 08:26:58;;;;;;;7.43;2.92;;;;;;;;;;5073825;28;20032;-37
2022/01/23 08:29:23;;;;;;;7.13;2.65;;;;;;;;;;5073699;28;20044;-38
2022/01/23 08:31:49;;;;;;;2.28;1.75;;;;;;;;;;5073741;28;20048;-37
2022/01/23 08:34:14;;;;;;;3.83;2.78;;;;;;;;;;5073655;28;20028;-37
2022/01/23 08:36:40;;;;;;;5.05;2.78;;;;;;;;;;5073517;28;20036;-37
2022/01/23 08:39:09;;;;;;;4.72;2.70;;;;;;;;;;5073513;28;20099;-37
2022/01/23 08:41:50;;;;;;;4.25;2.20;;;;;;;;;;5073431;28;20144;-37
2022/01/23 08:44:16;;;;;;;5.68;2.83;;;;;;;;;;5073874;28;20020;-37
2022/01/23 08:46:41;;;;;;;3.58;2.53;;;;;;;;;;5073534;28;20115;-37
2022/01/23 08:49:07;;;;;;;5.32;3.35;;;;;;;;;;5073276;28;20116;-37
2022/01/23 08:51:32;;;;;;;8.15;3.42;;;;;;;;;;5073291;28;20036;-37
2022/01/23 08:53:59;;;;;;;5.90;2.67;;;;;;;;;;5073333;28;20074;-37
2022/01/23 08:56:25;;;;;;;3.95;2.78;;;;;;;;;;5073141;28;20024;-37
2022/01/23 08:58:51;;;;;;;3.45;2.58;;;;;;;;;;5073557;28;20030;-37
2022/01/23 09:01:16;;;;;;;5.82;2.88;;;;;;;;;;5073016;28;20028;-37
2022/01/23 09:03:42;;;;;;;6.35;2.70;;;;;;;;;;5073425;28;20032;-37
2022/01/23 09:06:08;;;;;;;7.68;3.03;;;;;;;;;;5073125;28;20403;-37
2022/01/23 09:08:37;;;;;;;2.70;2.22;;;;;;;;;;5072992;28;20103;-37
2022/01/23 09:11:09;;;;;;;3.67;2.88;;;;;;;;;;5072567;28;20016;-37
2022/01/23 09:16:03;;;;;;;4.75;2.85;;;;;;;;;;5072995;28;20027;-37
2022/01/23 09:18:28;;;;;;;5.57;2.50;;;;;;;;;;5072597;28;20029;-38
2022/01/23 09:20:54;;;;;;;7.53;2.70;;;;;;;;;;5073031;28;20032;-37
2022/01/23 09:23:19;;;;;;;4.70;3.17;;;;;;;;;;5072941;28;20489;-37
2022/01/23 09:25:45;;;;;;;4.45;2.30;;;;;;;;;;5072671;28;20023;-37
2022/01/23 09:28:13;;;;;;;4.63;2.60;;;;;;;;;;5072600;28;20059;-37
2022/01/23 09:30:44;;;;;;;5.43;3.10;;;;;;;;;;5072391;28;20111;-37
2022/01/23 09:33:10;;;;;;;5.25;3.08;;;;;;;;;;5072800;28;20059;-37
2022/01/23 09:35:35;;;;;;;3.72;2.78;;;;;;;;;;5072916;28;20048;-37
2022/01/23 09:38:01;;;;;;;4.22;2.72;;;;;;;;;;5072371;28;20546;-37
2022/01/23 09:40:26;;;;;;;14.38;3.75;;;;;;;;;;5072655;28;20039;-37
2022/01/23 09:42:58;;;;;;;6.43;2.90;;;;;;;;;;5072134;28;20045;-38
2022/01/23 09:45:25;;;;;;;4.65;2.58;;;;;;;;;;5072546;28;20383;-37
2022/01/23 09:47:51;;;;;;;4.00;2.58;;;;;;;;;;5072155;28;20021;-37
2022/01/23 09:50:17;;;;;;;5.32;2.85;;;;;;;;;;5072096;28;20414;-37
2022/01/23 09:52:44;;;;;;;6.72;3.08;;;;;;;;;;5072168;28;20016;-37
2022/01/23 09:55:11;;;;;;;9.73;3.33;;;;;;;;;;5072143;28;20035;-37
2022/01/23 09:57:38;;;;;;;6.10;3.53;;;;;;;;;;5071948;28;20481;-37
2022/01/23 10:00:06;;;;;;;3.20;2.15;;;;;;;;;;5071912;28;20115;-37
2022/01/23 10:02:39;;;;;;;5.50;2.65;;;;;;;;;;5071898;28;20036;-37
2022/01/23 10:05:05;;;;;;;3.40;2.35;;;;;;;;;;5071990;28;20031;-38
2022/01/23 10:07:32;;;;;;;5.30;2.97;;;;;;;;;;5087422;28;20528;-37
2022/01/23 10:10:09;;;;;;;8.48;2.85;;;;;;;;;;5072246;28;20115;-37
2022/01/23 10:12:55;;;;;;;5.28;2.58;;;;;;;;;;5071800;28;20063;-37
2022/01/23 10:15:22;;;;;;;6.40;2.60;;;;;;;;;;5071229;28;20048;-37
2022/01/23 10:17:47;;;;;;;7.20;3.08;;;;;;;;;;5071663;28;20025;-37
2022/01/23 10:20:14;;;;;;;4.10;2.55;;;;;;;;;;5071684;28;20501;-37
2022/01/23 10:22:43;;;;;;;3.83;2.45;;;;;;;;;;5071072;28;20070;-37
2022/01/23 10:25:13;;;;;;;2.80;2.55;;;;;;;;;;5071191;28;20486;-37
2022/01/23 10:27:51;;;;;;;4.72;2.72;;;;;;;;;;5071602;28;20039;-37
2022/01/23 10:30:18;;;;;;;3.08;2.10;;;;;;;;;;5071547;28;20029;-37
2022/01/23 10:32:54;;;;;;;6.38;2.30;;;;;;;;;;5071510;28;20455;-37
2022/01/23 10:35:20;;;;;;;5.57;2.22;;;;;;;;;;5071675;28;20035;-37
2022/01/23 10:37:46;;;;;;;10.77;3.45;;;;;;;;;;5071458;28;20016;-37
2022/01/23 10:40:33;;;;;;;3.50;3.13;;;;;;;;;;5071446;28;20074;-37
2022/01/23 10:48:39;;;;;;;9.25;2.80;;;;;;;;;;5071243;28;20471;-37
2022/01/23 10:51:16;;;;;;;5.88;3.10;;;;;;;;;;5071216;28;20382;-37
2022/01/23 10:54:00;;;;;;;7.32;2.88;;;;;;;;;;5071516;28;20089;-37
2022/01/23 10:56:34;;;;;;;3.45;3.03;;;;;;;;;;5071021;28;20483;-37
2022/01/23 10:59:05;;;;;;;7.35;3.50;;;;;;;;;;5071075;28;20107;-37
2022/01/23 11:01:31;;;;;;;9.38;3.80;;;;;;;;;;5071289;28;20040;-37
2022/01/23 11:04:11;;;;;;;6.22;2.88;;;;;;;;;;5071515;28;20082;-37
2022/01/23 11:07:03;;;;;;;5.80;3.03;;;;;;;;;;5071301;28;20036;-38
2022/01/23 11:09:34;;;;;;;5.95;3.42;;;;;;;;;;5068818;28;20487;-37
2022/01/23 11:12:03;;;;;;;7.38;3.13;;;;;;;;;;5071094;28;20035;-37
2022/01/23 11:19:47;;;;;;;8.50;4.28;;;;;;;;;;5070955;28;20097;-37
2022/01/23 11:22:23;;;;;;;7.57;3.92;;;;;;;;;;5070866;28;20512;-37
2022/01/23 11:24:50;;;;;;;12.38;4.50;;;;;;;;;;5071200;28;20071;-37
2022/01/23 11:27:17;;;;;;;7.05;3.65;;;;;;;;;;5071021;28;20024;-37
2022/01/23 11:29:54;;;;;;;10.05;3.92;;;;;;;;;;5070974;28;20471;-37
2022/01/23 11:32:21;;;;;;;10.90;4.40;;;;;;;;;;5071098;28;20025;-37
2022/01/23 11:34:48;;;;;;;5.90;3.03;;;;;;;;;;5072006;28;20471;-37
2022/01/23 11:37:15;;;;;;;12.40;4.95;;;;;;;;;;5074767;28;20028;-37
2022/01/23 11:39:53;;;;;;;14.02;4.45;;;;;;;;;;5074484;28;20028;-37
2022/01/23 11:56:47;;;;;;;10.27;4.78;;;;;;;;;;5074365;28;20040;-37
2022/01/23 11:59:32;;;;;;;12.00;4.20;;;;;;;;;;5074308;28;20048;-37
2022/01/23 12:02:53;;;;;;;8.15;4.43;;;;;;;;;;5074232;28;20048;-37
2022/01/23 12:05:12;;;;;;;8.05;3.35;;;;;;;;;;5068686;28;20395;-37
2022/01/23 12:07:42;;;;;;;12.43;4.18;;;;;;;;;;5074587;28;20044;-37
2022/01/23 12:10:23;;;;;;;11.82;4.40;;;;;;;;;;5074441;28;20028;-37
2022/01/23 12:13:13;;;;;;;9.75;4.50;;;;;;;;;;5074112;28;20540;-37
2022/01/23 12:18:36;;;;;;;12.65;3.97;;;;;;;;;;5073818;28;20033;-37
2022/01/23 12:21:05;;;;;;;11.23;4.22;;;;;;;;;;5073883;28;20052;-37
2022/01/23 12:23:50;;;;;;;7.72;3.08;;;;;;;;;;5074029;28;20044;-37
2022/01/23 12:26:24;;;;;;;11.90;2.95;;;;;;;;;;5073916;28;20060;-37
2022/01/23 12:28:52;;;;;;;4.88;3.28;;;;;;;;;;5073800;28;20032;-37
2022/01/23 12:31:20;;;;;;;8.40;4.32;;;;;;;;;;5074084;28;20115;-37
2022/01/23 12:33:47;;;;;;;8.95;2.53;;;;;;;;;;5073797;28;20021;-38
2022/01/23 12:36:12;;;;;;;13.75;4.68;;;;;;;;;;5073978;28;20064;-37
2022/01/23 12:38:43;;;;;;;14.40;4.97;;;;;;;;;;5073816;28;20066;-37
2022/01/23 12:41:29;;;;;;;10.68;3.38;;;;;;;;;;5073386;28;20051;-37
2022/01/23 12:43:59;;;;;;;8.93;3.80;;;;;;;;;;5074044;28;20036;-37
2022/01/23 12:46:34;;;;;;;7.30;3.03;;;;;;;;;;5072423;28;20043;-37
2022/01/23 12:49:15;;;;;;;12.45;4.88;;;;;;;;;;5073404;28;20040;-37
2022/01/23 12:51:42;;;;;;;7.95;3.95;;;;;;;;;;5071972;28;20131;-37
2022/01/23 12:54:07;;;;;;;15.52;4.15;;;;;;;;;;5073330;28;20021;-37
2022/01/23 12:56:41;;;;;;;12.05;4.03;;;;;;;;;;5073508;28;20032;-37
2022/01/23 12:59:11;;;;;;;10.52;4.72;;;;;;;;;;5073300;28;20475;-37
2022/01/23 13:01:41;;;;;;;11.93;4.68;;;;;;;;;;5073273;28;20146;-37
2022/01/23 13:04:11;;;;;;;11.27;4.65;;;;;;;;;;5073033;28;20036;-37
2022/01/23 13:06:38;;;;;;;14.23;5.10;;;;;;;;;;5072959;28;20070;-37
2022/01/23 13:09:13;;;;;;;9.13;4.68;;;;;;;;;;5071739;28;20085;-37
2022/01/23 13:12:07;;;;;;;7.38;4.28;;;;;;;;;;5072920;28;20044;-37
2022/01/23 13:14:43;;;;;;;8.02;3.05;;;;;;;;;;5088360;28;20540;-37
2022/01/23 13:26:23;;;;;;;7.97;4.05;;;;;;;;;;5072653;28;20112;-37
2022/01/23 13:30:31;;;;;;;7.05;3.67;;;;;;;;;;5072562;28;20681;-37
2022/01/23 13:33:00;;;;;;;10.52;4.95;;;;;;;;;;5072542;28;20040;-37
2022/01/23 13:35:30;;;;;;;9.27;4.15;;;;;;;;;;5088138;28;20035;-37
2022/01/23 13:37:58;;;;;;;7.90;3.25;;;;;;;;;;5072348;28;20028;-37
2022/01/23 13:40:29;;;;;;;11.23;3.97;;;;;;;;;;5072629;28;20070;-37
2022/01/23 13:53:51;;;;;;;10.57;5.05;;;;;;;;;;5072409;28;20021;-37
2022/01/23 13:59:06;;;;;;;7.25;3.58;;;;;;;;;;5071859;28;20028;-37
2022/01/23 14:01:35;;;;;;;9.10;4.95;;;;;;;;;;5071815;28;20035;-37
2022/01/23 14:04:01;;;;;;;11.48;4.82;;;;;;;;;;5072067;28;20024;-38
2022/01/23 14:06:27;;;;;;;15.10;4.07;;;;;;;;;;5072147;28;20019;-37
2022/01/23 14:09:00;;;;;;;7.45;4.55;;;;;;;;;;5071833;28;20120;-38
2022/01/23 14:11:26;;;;;;;9.07;3.38;;;;;;;;;;5072102;28;20032;-37
2022/01/23 14:13:52;;;;;;;9.15;3.50;;;;;;;;;;5071861;28;20379;-38
2022/01/23 14:16:24;;;;;;;10.15;4.15;;;;;;;;;;5071652;28;20036;-37
2022/01/23 14:18:53;;;;;;;;;;;;;;;;;;5072154;28;20475;-37
2022/01/23 14:21:22;;;;;;;4.78;3.08;;;;;;;;;;5070343;28;19969;-37
2022/01/23 14:23:55;;;;;;;14.32;6.22;;;;;;;;;;5071561;28;20054;-37
2022/01/23 14:26:22;;;;;;;10.60;4.63;;;;;;;;;;5071638;28;20043;-37
2022/01/23 14:28:51;;;;;;;9.57;3.90;;;;;;;;;;5071732;28;20028;-37
2022/01/23 14:31:21;;;;;;;10.55;4.28;;;;;;;;;;5071820;28;20035;-37
2022/01/23 14:33:52;;;;;;;9.00;4.50;;;;;;;;;;5071936;28;20100;-37
2022/01/23 14:36:19;;;;;;;9.45;3.65;;;;;;;;;;5071817;28;20094;-37
2022/01/23 14:39:03;;;;;;;10.82;4.32;;;;;;;;;;5071209;28;20360;-38
2022/01/23 14:41:30;;;;;;;9.27;4.97;;;;;;;;;;5071357;28;20105;-37
2022/01/23 14:43:57;;;;;;;6.30;2.80;;;;;;;;;;5071408;28;20109;-38
2022/01/23 14:46:22;;;;;;;12.45;3.92;;;;;;;;;;5086839;28;20032;-37
2022/01/23 14:48:50;;;;;;;11.82;3.83;;;;;;;;;;5071219;28;20043;-37
2022/01/23 14:51:20;;;;;;;11.35;3.47;;;;;;;;;;5071292;28;20020;-38
2022/01/23 14:53:46;;;;;;;10.60;4.40;;;;;;;;;;5069922;28;20101;-38
2022/01/23 14:56:13;;;;;;;10.10;4.80;;;;;;;;;;5071113;28;20072;-37
2022/01/23 14:58:39;;;;;;;9.25;3.95;;;;;;;;;;5071027;28;20035;-37
2022/01/23 15:01:10;;;;;;;5.90;4.38;;;;;;;;;;5071077;28;20037;-37
2022/01/23 15:03:36;;;;;;;3.83;3.30;;;;;;;;;;5071060;28;20128;-37
2022/01/23 15:06:02;;;;;;;8.77;4.32;;;;;;;;;;5071025;28;20462;-37
2022/01/23 15:08:28;;;;;;;12.02;5.90;;;;;;;;;;5070921;28;20040;-38
2022/01/23 15:10:55;;;;;;;11.68;4.45;;;;;;;;;;5077366;28;20022;-37
2022/01/23 15:13:22;;;;;;;8.05;4.97;;;;;;;;;;5076647;28;20025;-37
2022/01/23 15:15:51;;;;;;;10.00;4.88;;;;;;;;;;5077709;28;20028;-37
2022/01/23 15:18:17;;;;;;;14.18;4.00;;;;;;;;;;5077671;28;20447;-37
2022/01/23 15:20:43;;;;;;;13.70;5.10;;;;;;;;;;5077831;28;20163;-37
2022/01/23 15:23:09;;;;;;;10.02;3.90;;;;;;;;;;5076418;28;20089;-37
2022/01/23 15:25:35;;;;;;;15.10;5.13;;;;;;;;;;5077535;28;20021;-37
2022/01/23 15:28:01;;;;;;;16.08;5.80;;;;;;;;;;5077504;28;20082;-37
2022/01/23 15:30:26;;;;;;;9.13;4.97;;;;;;;;;;5076373;28;20023;-37
2022/01/23 15:32:55;;;;;;;16.10;4.55;;;;;;;;;;5077485;28;20036;-37
2022/01/23 15:35:22;;;;;;;13.50;5.20;;;;;;;;;;5077581;28;20025;-37
2022/01/23 15:37:48;;;;;;;12.95;5.97;;;;;;;;;;5077621;28;20444;-37
2022/01/23 15:40:14;;;;;;;16.05;4.13;;;;;;;;;;5077469;28;20096;-37
2022/01/23 15:42:41;;;;;;;7.95;3.63;;;;;;;;;;5077074;28;20056;-38
2022/01/23 15:45:07;;;;;;;12.38;4.78;;;;;;;;;;5077517;28;20081;-37
2022/01/23 15:47:33;;;;;;;9.15;3.22;;;;;;;;;;5077353;28;20053;-37
2022/01/23 15:49:58;;;;;;;12.48;4.43;;;;;;;;;;5077413;28;20012;-37
2022/01/23 15:52:24;;;;;;;11.00;4.68;;;;;;;;;;5077317;28;20479;-38
2022/01/23 15:54:49;;;;;;;9.57;4.32;;;;;;;;;;5077330;28;20012;-37
2022/01/23 15:57:15;;;;;;;10.05;5.57;;;;;;;;;;5077286;28;20031;-37
2022/01/23 15:59:41;;;;;;;15.30;5.60;;;;;;;;;;5077319;28;20076;-38
2022/01/23 16:02:07;;;;;;;9.30;4.25;;;;;;;;;;5077198;28;20086;-37
2022/01/23 16:04:35;;;;;;;9.93;4.32;;;;;;;;;;5077194;28;20366;-37
2022/01/23 16:07:03;;;;;;;9.70;4.97;;;;;;;;;;5077853;28;20052;-38
2022/01/23 16:09:28;;;;;;;10.20;4.95;;;;;;;;;;5077222;28;20035;-37
2022/01/23 16:11:54;;;;;;;11.15;4.45;;;;;;;;;;5077296;28;20029;-37
2022/01/23 16:14:20;;;;;;;8.23;4.47;;;;;;;;;;5077159;28;20029;-37
2022/01/23 16:16:46;;;;;;;13.85;5.07;;;;;;;;;;5077036;28;20029;-37
2022/01/23 16:19:12;;;;;;;10.15;4.32;;;;;;;;;;5077424;28;20024;-37
2022/01/23 16:21:37;;;;;;;7.35;3.97;;;;;;;;;;5075113;28;20217;-37
2022/01/23 16:24:03;;;;;;;10.75;4.65;;;;;;;;;;5074442;28;20418;-38
2022/01/23 16:26:29;;;;;;;14.60;5.47;;;;;;;;;;5073942;28;20067;-37
2022/01/23 16:28:54;;;;;;;11.15;4.53;;;;;;;;;;5074101;28;20424;-38
2022/01/23 16:31:20;;;;;;;11.88;5.50;;;;;;;;;;5073825;28;20033;-38
2022/01/23 16:33:46;;;;;;;9.82;4.78;;;;;;;;;;5073922;28;20112;-38
2022/01/23 16:36:11;;;;;;;19.80;6.25;;;;;;;;;;5074011;28;20059;-38
2022/01/23 16:38:37;;;;;;;8.52;4.55;;;;;;;;;;5073470;28;20036;-37
2022/01/23 16:41:03;;;;;;;10.35;4.30;;;;;;;;;;5073561;28;20035;-38
2022/01/23 16:43:30;;;;;;;7.28;4.70;;;;;;;;;;5073421;28;20070;-38
2022/01/23 16:45:57;;;;;;;8.40;4.90;;;;;;;;;;5073491;28;20056;-37
2022/01/23 16:48:23;;;;;;;14.13;5.65;;;;;;;;;;5073653;28;20024;-37
2022/01/23 16:50:48;;;;;;;11.73;5.35;;;;;;;;;;5073609;28;20028;-37
2022/01/23 16:53:14;;;;;;;19.95;5.22;;;;;;;;;;5073324;28;20028;-37
2022/01/23 16:55:40;;;;;;;12.25;5.05;;;;;;;;;;5088981;28;20078;-37
2022/01/23 16:58:06;;;;;;;8.40;4.35;;;;;;;;;;5073550;28;20413;-37
2022/01/23 17:00:32;;;;;;;14.02;5.22;;;;;;;;;;5073163;28;20032;-37
2022/01/23 17:02:59;;;;;;;10.38;4.20;;;;;;;;;;5073083;28;20044;-37
2022/01/23 17:05:25;;;;;;;13.50;5.75;;;;;;;;;;5073078;28;20029;-37
2022/01/23 17:07:51;;;;;;;13.00;4.72;;;;;;;;;;5073027;28;20024;-37
2022/01/23 17:10:16;;;;;;;17.52;5.35;;;;;;;;;;5073103;28;20066;-37
2022/01/23 17:12:42;;;;;;;8.35;3.88;;;;;;;;;;5072895;28;20447;-37
2022/01/23 17:15:08;;;;;;;10.57;4.55;;;;;;;;;;5071771;28;20044;-37
2022/01/23 17:17:33;;;;;;;13.55;6.13;;;;;;;;;;5072974;28;20459;-37
2022/01/23 17:19:59;;;;;;;10.85;5.03;;;;;;;;;;5072882;28;20081;-37
2022/01/23 17:22:24;;;;;;;17.83;4.43;;;;;;;;;;5072720;28;20028;-37
2022/01/23 17:24:50;;;;;;;9.85;4.18;;;;;;;;;;5072799;28;20033;-37
2022/01/23 17:27:16;;;;;;;9.50;4.45;;;;;;;;;;5072700;28;20387;-37
2022/01/23 17:29:41;;;;;;;16.27;4.85;;;;;;;;;;5072799;28;20368;-37
2022/01/23 17:32:09;;;;;;;10.25;5.22;;;;;;;;;;5072327;28;20294;-37
2022/01/23 17:34:36;;;;;;;13.00;3.85;;;;;;;;;;5072655;28;20051;-37
2022/01/23 17:37:02;;;;;;;13.48;5.55;;;;;;;;;;5072452;28;20100;-37
2022/01/23 17:39:27;;;;;;;11.10;5.05;;;;;;;;;;5072403;28;20178;-38
2022/01/23 17:41:53;;;;;;;15.13;5.85;;;;;;;;;;5072209;28;20040;-37
2022/01/23 17:44:19;;;;;;;9.00;4.65;;;;;;;;;;5072673;28;20554;-38
2022/01/23 17:46:56;;;;;;;12.23;4.40;;;;;;;;;;5072361;28;20032;-37
2022/01/23 17:49:33;;;;;;;8.50;4.32;;;;;;;;;;5072619;28;20535;-37
2022/01/23 17:51:59;;;;;;;10.82;3.75;;;;;;;;;;5072283;28;20417;-37
2022/01/23 17:54:24;;;;;;;11.98;5.03;;;;;;;;;;5072545;28;20024;-38
2022/01/23 17:56:50;;;;;;;10.52;4.50;;;;;;;;;;5072300;28;20032;-37
2022/01/23 17:59:16;;;;;;;9.15;3.90;;;;;;;;;;5072329;28;20374;-37
2022/01/23 18:01:43;;;;;;;7.47;4.03;;;;;;;;;;5072233;28;20386;-38
2022/01/23 18:04:09;;;;;;;7.22;4.57;;;;;;;;;;5071894;28;20044;-37
2022/01/23 18:06:36;;;;;;;8.77;3.78;;;;;;;;;;5071986;28;20063;-37
2022/01/23 18:09:01;;;;;;;8.10;3.45;;;;;;;;;;5071941;28;20021;-37